Aeroporto :
LOGIN :

Iscrizione | Disclaimer

   EN    FR    IT 

 










Sommario :    VFR   VFR Marginale   IFR   IFR Intensivo   IFR Molto Intensivo
Visibilità : 
Base nubi : 
>= 8 km
>= 3000ft
5 / 8 km
1000 / 3000 ft
1500m / 5 km
500 / 1000 ft
800 / 1500m
200 / 500 ft
< 800m
< 200 ft
Simboli :   Temporali  Nebbia  Neve Forte  Precipitazioni Forti  Vento > 20 kt
SIGMETs :   Varie  Temporali  Ghiacco  Turbolenza  Onda orograficha  Ceneri Vulcaniche






- Altitudine del aeroporto : 146 ft
- Codice IATA : RKE


EKRK - Roskilde Tune

ULTIMO METAR :
  • 220420Z AUTO 11012KT 2500 RA OVC003/// 08/08 Q1009

METARs OBSOLETI :
  • 220350Z AUTO 11012KT 3400 -RA OVC004/// 08/08 Q1009
  • 220320Z AUTO 11012KT 2300 -RA OVC004/// 08/07 Q1009
  • 220250Z AUTO 11014KT 7000 -RA OVC004/// 08/08 Q1009 RERA
  • 220220Z AUTO 11013KT 4000 RA OVC004/// 08/08 Q1010
  • 220150Z AUTO 11013KT 4600 RA OVC005/// 08/08 Q1010

TAF TAF EKRK
Valido dal 22 a 03 ore il 22 a 12 ore UTC


220158Z 2203/2212 13010KT 5000 -RADZ BKN008
TEMPO 2203/2212 2000 DZ BR BKN002



MetMap, La meteo Aeronautica in un colpo d'occhio ! - Copyright ORBIFLY Dicembre 2007 - Disclaimer

ORBIFLY MET'MAP TEAM :

Programmazione e sviluppo : Alexandra Zaïnal
Concezione e sviluppo : Baudouin d'Aumeries
Co-Programmazione e sviluppo : Marc-Olivier Méhu
Supporto tecnico e logistico : Manuel Goepfert
Aiuto per la traduzione : Arnaldo La Scala

Contatto : metmap@orbifly.com




FONTI E CREDITI :

   NOAA